^^
Meteo Knjazevac Station Historical Data
Daily Summary for July 28, 2022 Units:  Both    English   Metric
Daily Weekly Monthly Yearly Custom
  High: Low: Average:
Temperature: 45.9 °F /  7.7 °C 30.7 °F /  -0.7 °C 37.1 °F /  2.8 °C
Dew Point: 42.5 °F /  5.8 °C 30.5 °F /  -0.8 °C 36 °F /  2.2 °C
Humidity: 99% 86% 96%
Wind Speed: 13.5mph /  21.7km/h - 3.6mph /  5.8km/h
Wind Gust: 19mph /  30.6km/h - -
Wind- - South
Pressure: 30.21 in /  1022.9 hPa 30.11 in /  1019.5 hPa -
Precipitation: 0.00 in /  0 mm    
Historical Graphs
 
 
Tabular Data for July 28, 2022
Time Temperature Dew Point Pressure Wind Wind Speed Wind Gust Humidity Rainfall Rate (Hourly) solar Conditions
00:04 36.3 °F /  2.4 °C 36.1 °F /  2.3 °C 30.21in /  1022.9hPa South 2mph /  3.2km/h 2mph /  3.2km/h 99% 0.00in /  0mm 0 W/m2
00:09 36.3 °F /  2.4 °C 36.1 °F /  2.3 °C 30.21in /  1022.9hPa SW 1.4mph /  2.3km/h 2mph /  3.2km/h 99% 0.00in /  0mm 0 W/m2
00:14 36.3 °F /  2.4 °C 36.1 °F /  2.3 °C 30.21in /  1022.9hPa WSW 1.3mph /  2.1km/h 1mph /  1.6km/h 99% 0.00in /  0mm 0 W/m2
00:19 36.3 °F /  2.4 °C 36.1 °F /  2.3 °C 30.21in /  1022.9hPa WSW 1.1mph /  1.8km/h 2mph /  3.2km/h 99% 0.00in /  0mm 0 W/m2
00:24 36.3 °F /  2.4 °C 36.1 °F /  2.3 °C 30.21in /  1022.9hPa West 1.6mph /  2.6km/h 1mph /  1.6km/h 99% 0.00in /  0mm 0 W/m2
00:29 36.3 °F /  2.4 °C 36.1 °F /  2.3 °C 30.21in /  1022.9hPa West 0.4mph /  0.6km/h 3mph /  4.8km/h 99% 0.00in /  0mm 0 W/m2
00:34 36.3 °F /  2.4 °C 36.1 °F /  2.3 °C 30.21in /  1022.9hPa WSW 1.1mph /  1.8km/h 1mph /  1.6km/h 99% 0.00in /  0mm 0 W/m2
00:39 36.2 °F /  2.3 °C 36 °F /  2.2 °C 30.21in /  1022.9hPa WSW 0.7mph /  1.1km/h 1mph /  1.6km/h 99% 0.00in /  0mm 0 W/m2
00:44 36.3 °F /  2.4 °C 36.1 °F /  2.3 °C 30.21in /  1022.9hPa North 0.7mph /  1.1km/h 1mph /  1.6km/h 99% 0.00in /  0mm 0 W/m2
00:49 36.1 °F /  2.3 °C 35.9 °F /  2.2 °C 30.20in /  1022.6hPa WNW 0.1mph /  0.2km/h 1mph /  1.6km/h 99% 0.00in /  0mm 0 W/m2
00:54 36.1 °F /  2.3 °C 35.9 °F /  2.2 °C 30.20in /  1022.6hPa West 0.9mph /  1.4km/h 1mph /  1.6km/h 99% 0.00in /  0mm 0 W/m2
00:59 36.1 °F /  2.3 °C 35.9 °F /  2.2 °C 30.20in /  1022.6hPa Calm   1mph /  1.6km/h 99% 0.00in /  0mm 0 W/m2
01:04 36.1 °F /  2.3 °C 35.9 °F /  2.2 °C 30.20in /  1022.6hPa Calm     99% 0.00in /  0mm 0 W/m2
01:09 36.1 °F /  2.3 °C 35.9 °F /  2.2 °C 30.20in /  1022.6hPa Calm     99% 0.00in /  0mm 0 W/m2
01:14 36.1 °F /  2.3 °C 35.9 °F /  2.2 °C 30.20in /  1022.6hPa Calm     99% 0.00in /  0mm 0 W/m2
01:19 36 °F /  2.2 °C 35.7 °F /  2.1 °C 30.20in /  1022.6hPa Calm     99% 0.00in /  0mm 0 W/m2
01:24 36 °F /  2.2 °C 35.7 °F /  2.1 °C 30.20in /  1022.6hPa North 0.3mph /  0.5km/h   99% 0.00in /  0mm 0 W/m2
01:29 36 °F /  2.2 °C 35.7 °F /  2.1 °C 30.20in /  1022.6hPa North 1.5mph /  2.4km/h 1.1mph /  1.8km/h 99% 0.00in /  0mm 0 W/m2
01:34 36 °F /  2.2 °C 35.7 °F /  2.1 °C 30.20in /  1022.6hPa NNW 1.7mph /  2.7km/h 2mph /  3.2km/h 99% 0.00in /  0mm 0 W/m2
01:39 35.8 °F /  2.1 °C 35.5 °F /  1.9 °C 30.20in /  1022.6hPa WNW 1.2mph /  1.9km/h 2mph /  3.2km/h 99% 0.00in /  0mm 0 W/m2
01:44 35.8 °F /  2.1 °C 35.5 °F /  1.9 °C 30.20in /  1022.6hPa WNW 0.8mph /  1.3km/h 1mph /  1.6km/h 99% 0.00in /  0mm 0 W/m2
01:49 35.8 °F /  2.1 °C 35.5 °F /  1.9 °C 30.20in /  1022.6hPa Calm   1mph /  1.6km/h 99% 0.00in /  0mm 0 W/m2
01:54 35.8 °F /  2.1 °C 35.5 °F /  1.9 °C 30.20in /  1022.6hPa NNW 1.4mph /  2.3km/h 1.1mph /  1.8km/h 99% 0.00in /  0mm 0 W/m2
01:59 35.8 °F /  2.1 °C 35.5 °F /  1.9 °C 30.20in /  1022.6hPa Calm   2mph /  3.2km/h 99% 0.00in /  0mm 0 W/m2
02:04 35.6 °F /  2 °C 35.3 °F /  1.8 °C 30.20in /  1022.6hPa WNW 0.9mph /  1.4km/h 0.4mph /  0.6km/h 99% 0.00in /  0mm 0 W/m2
02:09 35.6 °F /  2 °C 35.3 °F /  1.8 °C 30.20in /  1022.6hPa North 0.3mph /  0.5km/h 1mph /  1.6km/h 99% 0.00in /  0mm 0 W/m2
02:14 35.6 °F /  2 °C 35.3 °F /  1.8 °C 30.20in /  1022.6hPa NNE 1.2mph /  1.9km/h 1mph /  1.6km/h 99% 0.00in /  0mm 0 W/m2
02:19 35.4 °F /  1.9 °C 35.2 °F /  1.8 °C 30.20in /  1022.6hPa NNW 2.1mph /  3.4km/h 2mph /  3.2km/h 99% 0.00in /  0mm 0 W/m2
02:24 35.4 °F /  1.9 °C 35.2 °F /  1.8 °C 30.20in /  1022.6hPa NW 1.1mph /  1.8km/h 2mph /  3.2km/h 99% 0.00in /  0mm 0 W/m2
02:29 35.4 °F /  1.9 °C 35.2 °F /  1.8 °C 30.20in /  1022.6hPa NNW 0.7mph /  1.1km/h 2mph /  3.2km/h 99% 0.00in /  0mm 0 W/m2
02:34 35.4 °F /  1.9 °C 35.2 °F /  1.8 °C 30.20in /  1022.6hPa WNW 0.5mph /  0.8km/h 1mph /  1.6km/h 99% 0.00in /  0mm 0 W/m2
02:39 35.4 °F /  1.9 °C 35.2 °F /  1.8 °C 30.20in /  1022.6hPa WNW 0.7mph /  1.1km/h 1mph /  1.6km/h 99% 0.00in /  0mm 0 W/m2
02:44 35.4 °F /  1.9 °C 35.2 °F /  1.8 °C 30.20in /  1022.6hPa North 0.7mph /  1.1km/h 1mph /  1.6km/h 99% 0.00in /  0mm 0 W/m2
02:49 35.3 °F /  1.8 °C 35.1 °F /  1.7 °C 30.20in /  1022.6hPa North 0.2mph /  0.3km/h 1mph /  1.6km/h 99% 0.00in /  0mm 0 W/m2
02:54 35.2 °F /  1.8 °C 35 °F /  1.7 °C 30.20in /  1022.6hPa North 0.6mph /  1km/h 0.7mph /  1.1km/h 99% 0.00in /  0mm 0 W/m2
02:59 35.2 °F /  1.8 °C 35 °F /  1.7 °C 30.19in /  1022.2hPa North 0.1mph /  0.2km/h 1mph /  1.6km/h 99% 0.00in /  0mm 0 W/m2
03:04 35.2 °F /  1.8 °C 35 °F /  1.7 °C 30.19in /  1022.2hPa North 0.3mph /  0.5km/h 0.2mph /  0.3km/h 99% 0.00in /  0mm 0 W/m2
03:09 35.1 °F /  1.7 °C 34.9 °F /  1.6 °C 30.19in /  1022.2hPa Calm   1mph /  1.6km/h 99% 0.00in /  0mm 0 W/m2
03:14 35.1 °F /  1.7 °C 34.8 °F /  1.6 °C 30.19in /  1022.2hPa North 1.7mph /  2.7km/h 1mph /  1.6km/h 99% 0.00in /  0mm 0 W/m2
03:19 35.1 °F /  1.7 °C 34.8 °F /  1.6 °C 30.19in /  1022.2hPa Calm   2mph /  3.2km/h 99% 0.00in /  0mm 0 W/m2
03:24 35.1 °F /  1.7 °C 34.8 °F /  1.6 °C 30.19in /  1022.2hPa Calm     99% 0.00in /  0mm 0 W/m2
03:29 35.1 °F /  1.7 °C 34.8 °F /  1.6 °C 30.19in /  1022.2hPa North 0.4mph /  0.6km/h 0.2mph /  0.3km/h 99% 0.00in /  0mm 0 W/m2
03:34 35.1 °F /  1.7 °C 34.8 °F /  1.6 °C 30.19in /  1022.2hPa North 0.6mph /  1km/h 1mph /  1.6km/h 99% 0.00in /  0mm 0 W/m2
03:39 35.1 °F /  1.7 °C 34.8 °F /  1.6 °C 30.19in /  1022.2hPa North 0.9mph /  1.4km/h 1mph /  1.6km/h 99% 0.00in /  0mm 0 W/m2
03:44 35.1 °F /  1.7 °C 34.8 °F /  1.6 °C 30.19in /  1022.2hPa NNW 1.2mph /  1.9km/h 1mph /  1.6km/h 99% 0.00in /  0mm 0 W/m2
03:49 35.1 °F /  1.7 °C 34.9 °F /  1.6 °C 30.19in /  1022.2hPa NNW 0.4mph /  0.6km/h 2mph /  3.2km/h 99% 0.00in /  0mm 0 W/m2
03:54 35.2 °F /  1.8 °C 35 °F /  1.7 °C 30.19in /  1022.2hPa Calm     99% 0.00in /  0mm 0 W/m2
03:59 35.2 °F /  1.8 °C 34.9 °F /  1.6 °C 30.19in /  1022.2hPa North 0.4mph /  0.6km/h 1mph /  1.6km/h 99% 0.00in /  0mm 0 W/m2
04:04 35.1 °F /  1.7 °C 34.8 °F /  1.6 °C 30.19in /  1022.2hPa Calm   1mph /  1.6km/h 99% 0.00in /  0mm 0 W/m2
04:09 35.1 °F /  1.7 °C 34.8 °F /  1.6 °C 30.19in /  1022.2hPa Calm     99% 0.00in /  0mm 0 W/m2
04:14 35.1 °F /  1.7 °C 34.8 °F /  1.6 °C 30.19in /  1022.2hPa Calm     99% 0.00in /  0mm 0 W/m2
04:19 35.1 °F /  1.7 °C 34.8 °F /  1.6 °C 30.19in /  1022.2hPa North 0.6mph /  1km/h 0.9mph /  1.4km/h 99% 0.00in /  0mm 0 W/m2
04:24 35.1 °F /  1.7 °C 34.8 °F /  1.6 °C 30.19in /  1022.2hPa North 1.1mph /  1.8km/h 1mph /  1.6km/h 99% 0.00in /  0mm 0 W/m2
04:29 35.1 °F /  1.7 °C 34.8 °F /  1.6 °C 30.19in /  1022.2hPa NW 1.4mph /  2.3km/h 2mph /  3.2km/h 99% 0.00in /  0mm 0 W/m2
04:34 35.1 °F /  1.7 °C 34.8 °F /  1.6 °C 30.19in /  1022.2hPa Calm   2mph /  3.2km/h 99% 0.00in /  0mm 0 W/m2
04:39 35.1 °F /  1.7 °C 34.8 °F /  1.6 °C 30.19in /  1022.2hPa Calm     99% 0.00in /  0mm 0 W/m2
04:44 35.1 °F /  1.7 °C 34.8 °F /  1.6 °C 30.19in /  1022.2hPa North 0.5mph /  0.8km/h   99% 0.00in /  0mm 0 W/m2
04:49 35.1 °F /  1.7 °C 34.8 °F /  1.6 °C 30.19in /  1022.2hPa North 0.7mph /  1.1km/h 2mph /  3.2km/h 99% 0.00in /  0mm 0 W/m2
04:54 35.1 °F /  1.7 °C 34.8 °F /  1.6 °C 30.19in /  1022.2hPa NNW 0.7mph /  1.1km/h 1mph /  1.6km/h 99% 0.00in /  0mm 0 W/m2
04:59 35.1 °F /  1.7 °C 34.8 °F /  1.6 °C 30.19in /  1022.2hPa Calm   1mph /  1.6km/h 99% 0.00in /  0mm 0 W/m2
05:04 35.1 °F /  1.7 °C 34.8 °F /  1.6 °C 30.19in /  1022.2hPa Calm     99% 0.00in /  0mm 0 W/m2
05:09 35.1 °F /  1.7 °C 34.8 °F /  1.6 °C 30.19in /  1022.2hPa North 0.4mph /  0.6km/h 0.2mph /  0.3km/h 99% 0.00in /  0mm 0 W/m2
05:14 35.1 °F /  1.7 °C 34.8 °F /  1.6 °C 30.19in /  1022.2hPa North 0.5mph /  0.8km/h 1mph /  1.6km/h 99% 0.00in /  0mm 0 W/m2
05:19 35 °F /  1.7 °C 34.7 °F /  1.5 °C 30.19in /  1022.2hPa North 0.4mph /  0.6km/h 1mph /  1.6km/h 99% 0.00in /  0mm 0 W/m2
05:24 34.9 °F /  1.6 °C 34.6 °F /  1.4 °C 30.19in /  1022.2hPa North 0.4mph /  0.6km/h 1mph /  1.6km/h 99% 0.00in /  0mm 0 W/m2
05:29 34.8 °F /  1.6 °C 34.5 °F /  1.4 °C 30.19in /  1022.2hPa NNE 1.9mph /  3.1km/h 1.8mph /  2.9km/h 99% 0.00in /  0mm 0 W/m2
05:34 34.7 °F /  1.5 °C 34.4 °F /  1.3 °C 30.19in /  1022.2hPa NE 2.2mph /  3.5km/h 2mph /  3.2km/h 99% 0.00in /  0mm 0 W/m2
05:39 34.6 °F /  1.4 °C 34.3 °F /  1.3 °C 30.19in /  1022.2hPa NE 2.1mph /  3.4km/h 2mph /  3.2km/h 99% 0.00in /  0mm 0 W/m2
05:44 34.5 °F /  1.4 °C 34.3 °F /  1.3 °C 30.19in /  1022.2hPa NE 1mph /  1.6km/h 2mph /  3.2km/h 99% 0.00in /  0mm 0 W/m2
05:49 34.5 °F /  1.4 °C 34.3 °F /  1.3 °C 30.19in /  1022.2hPa NNE 0.7mph /  1.1km/h 2mph /  3.2km/h 99% 0.00in /  0mm 0 W/m2
05:54 34.4 °F /  1.3 °C 34.2 °F /  1.2 °C 30.19in /  1022.2hPa NNE 0.5mph /  0.8km/h 2mph /  3.2km/h 99% 0.00in /  0mm 0 W/m2
05:59 34.3 °F /  1.3 °C 34.1 °F /  1.2 °C 30.19in /  1022.2hPa Calm   1mph /  1.6km/h 99% 0.00in /  0mm 0 W/m2
06:04 34.3 °F /  1.3 °C 34.1 °F /  1.2 °C 30.19in /  1022.2hPa Calm     99% 0.00in /  0mm 0 W/m2
06:09 34.3 °F /  1.3 °C 34.1 °F /  1.2 °C 30.19in /  1022.2hPa NNE 0.6mph /  1km/h 0.2mph /  0.3km/h 99% 0.00in /  0mm 0 W/m2
06:14 34.2 °F /  1.2 °C 34 °F /  1.1 °C 30.19in /  1022.2hPa Calm   1mph /  1.6km/h 99% 0.00in /  0mm 0 W/m2
06:19 34.2 °F /  1.2 °C 33.9 °F /  1.1 °C 30.19in /  1022.2hPa Calm     99% 0.00in /  0mm 0 W/m2
06:24 34.2 °F /  1.2 °C 33.9 °F /  1.1 °C 30.19in /  1022.2hPa Calm     99% 0.00in /  0mm 0 W/m2
06:29 34.2 °F /  1.2 °C 33.9 °F /  1.1 °C 30.19in /  1022.2hPa Calm     99% 0.00in /  0mm 0 W/m2
06:34 34.1 °F /  1.2 °C 33.8 °F /  1 °C 30.19in /  1022.2hPa Calm     99% 0.00in /  0mm 1 W/m2
06:39 34 °F /  1.1 °C 33.7 °F /  0.9 °C 30.19in /  1022.2hPa Calm     99% 0.00in /  0mm 2 W/m2
06:44 34 °F /  1.1 °C 33.7 °F /  0.9 °C 30.19in /  1022.2hPa West 1.7mph /  2.7km/h 1.8mph /  2.9km/h 99% 0.00in /  0mm 4 W/m2
06:49 34 °F /  1.1 °C 33.7 °F /  0.9 °C 30.19in /  1022.2hPa NW 1.7mph /  2.7km/h 3mph /  4.8km/h 99% 0.00in /  0mm 7 W/m2
06:54 34 °F /  1.1 °C 33.7 °F /  0.9 °C 30.19in /  1022.2hPa NNE 1.9mph /  3.1km/h 2mph /  3.2km/h 99% 0.00in /  0mm 10 W/m2
06:59 34 °F /  1.1 °C 33.7 °F /  0.9 °C 30.19in /  1022.2hPa NNE 0.1mph /  0.2km/h 2mph /  3.2km/h 99% 0.00in /  0mm 14 W/m2
07:04 33.9 °F /  1.1 °C 33.6 °F /  0.9 °C 30.19in /  1022.2hPa NNE 0.1mph /  0.2km/h 1mph /  1.6km/h 99% 0.00in /  0mm 20 W/m2
07:09 33.8 °F /  1 °C 33.5 °F /  0.8 °C 30.19in /  1022.2hPa North 0.1mph /  0.2km/h   99% 0.00in /  0mm 25 W/m2
07:14 33.6 °F /  0.9 °C 33.4 °F /  0.8 °C 30.19in /  1022.2hPa Calm   1mph /  1.6km/h 99% 0.00in /  0mm 34 W/m2
07:19 33.6 °F /  0.9 °C 33.4 °F /  0.8 °C 30.19in /  1022.2hPa Calm     99% 0.00in /  0mm 44 W/m2
07:24 33.6 °F /  0.9 °C 33.4 °F /  0.8 °C 30.19in /  1022.2hPa North 0.2mph /  0.3km/h 0.2mph /  0.3km/h 99% 0.00in /  0mm 49 W/m2
07:29 33.5 °F /  0.8 °C 33.3 °F /  0.7 °C 30.19in /  1022.2hPa NNW 0.9mph /  1.4km/h 2mph /  3.2km/h 99% 0.00in /  0mm 48 W/m2
07:34 33.4 °F /  0.8 °C 33.2 °F /  0.7 °C 30.19in /  1022.2hPa Calm   2mph /  3.2km/h 99% 0.00in /  0mm 78 W/m2
07:39 33.7 °F /  0.9 °C 33.4 °F /  0.8 °C 30.19in /  1022.2hPa North 0.8mph /  1.3km/h 0.4mph /  0.6km/h 99% 0.00in /  0mm 81 W/m2
07:44 34.2 °F /  1.2 °C 33.9 °F /  1.1 °C 30.19in /  1022.2hPa North 1.1mph /  1.8km/h 2mph /  3.2km/h 99% 0.00in /  0mm 93 W/m2
07:49 34.8 °F /  1.6 °C 34.5 °F /  1.4 °C 30.19in /  1022.2hPa North 0.4mph /  0.6km/h 2mph /  3.2km/h 99% 0.00in /  0mm 113 W/m2
07:54 35.2 °F /  1.8 °C 35 °F /  1.7 °C 30.19in /  1022.2hPa North 0.9mph /  1.4km/h 2mph /  3.2km/h 99% 0.00in /  0mm 122 W/m2
07:59 35.6 °F /  2 °C 35.3 °F /  1.8 °C 30.19in /  1022.2hPa North 0.7mph /  1.1km/h 1mph /  1.6km/h 99% 0.00in /  0mm 141 W/m2
08:04 36 °F /  2.2 °C 35.7 °F /  2.1 °C 30.19in /  1022.2hPa North 0.4mph /  0.6km/h 1mph /  1.6km/h 99% 0.00in /  0mm 147 W/m2
08:09 36.4 °F /  2.4 °C 36.1 °F /  2.3 °C 30.19in /  1022.2hPa Calm   1mph /  1.6km/h 99% 0.00in /  0mm 137 W/m2
08:14 36.7 °F /  2.6 °C 36.4 °F /  2.4 °C 30.19in /  1022.2hPa NNE 0.4mph /  0.6km/h   99% 0.00in /  0mm 150 W/m2
08:19 36.7 °F /  2.6 °C 36.4 °F /  2.4 °C 30.19in /  1022.2hPa NE 1.7mph /  2.7km/h 2mph /  3.2km/h 99% 0.00in /  0mm 180 W/m2
08:24 37 °F /  2.8 °C 36.7 °F /  2.6 °C 30.19in /  1022.2hPa NE 1mph /  1.6km/h 2mph /  3.2km/h 99% 0.00in /  0mm 195 W/m2
08:29 37.3 °F /  2.9 °C 37 °F /  2.8 °C 30.19in /  1022.2hPa NNE 1.7mph /  2.7km/h 2mph /  3.2km/h 99% 0.00in /  0mm 199 W/m2
08:34 37.2 °F /  2.9 °C 37 °F /  2.8 °C 30.18in /  1021.9hPa NE 1.2mph /  1.9km/h 3mph /  4.8km/h 99% 0.00in /  0mm 188 W/m2
08:39 37.7 °F /  3.2 °C 37.4 °F /  3 °C 30.18in /  1021.9hPa NE 1.9mph /  3.1km/h 2mph /  3.2km/h 99% 0.00in /  0mm 228 W/m2
08:44 37.9 °F /  3.3 °C 37.7 °F /  3.2 °C 30.19in /  1022.2hPa ENE 1.4mph /  2.3km/h 2mph /  3.2km/h 99% 0.00in /  0mm 201 W/m2
08:49 38.2 °F /  3.4 °C 37.9 °F /  3.3 °C 30.19in /  1022.2hPa SSW 2.3mph /  3.7km/h 2mph /  3.2km/h 99% 0.00in /  0mm 263 W/m2
08:54 38.5 °F /  3.6 °C 38.2 °F /  3.4 °C 30.19in /  1022.2hPa SW 2.3mph /  3.7km/h 3mph /  4.8km/h 99% 0.00in /  0mm 305 W/m2
08:59 38.6 °F /  3.7 °C 38.3 °F /  3.5 °C 30.19in /  1022.2hPa SW 2.6mph /  4.2km/h 2.2mph /  3.5km/h 99% 0.00in /  0mm 347 W/m2
09:04 38.9 °F /  3.8 °C 38.6 °F /  3.7 °C 30.19in /  1022.2hPa SSW 2.7mph /  4.3km/h 4mph /  6.4km/h 99% 0.00in /  0mm 399 W/m2
09:09 39.4 °F /  4.1 °C 39.1 °F /  3.9 °C 30.18in /  1021.9hPa SW 3.4mph /  5.5km/h 4mph /  6.4km/h 99% 0.00in /  0mm 412 W/m2
09:14 39.8 °F /  4.3 °C 39.5 °F /  4.2 °C 30.18in /  1021.9hPa SW 3.1mph /  5km/h 4mph /  6.4km/h 99% 0.00in /  0mm 410 W/m2
09:19 40.2 °F /  4.6 °C 39.9 °F /  4.4 °C 30.18in /  1021.9hPa SW 3.4mph /  5.5km/h 4mph /  6.4km/h 99% 0.00in /  0mm 317 W/m2
09:24 40.1 °F /  4.5 °C 39.8 °F /  4.3 °C 30.18in /  1021.9hPa SW 3.3mph /  5.3km/h 5mph /  8km/h 99% 0.00in /  0mm 381 W/m2
09:29 40.3 °F /  4.6 °C 40 °F /  4.4 °C 30.18in /  1021.9hPa SW 3.1mph /  5km/h 3mph /  4.8km/h 99% 0.00in /  0mm 354 W/m2
09:34 40.5 °F /  4.7 °C 40 °F /  4.4 °C 30.18in /  1021.9hPa SW 2.2mph /  3.5km/h 4mph /  6.4km/h 98.2% 0.00in /  0mm 397 W/m2
09:39 40.8 °F /  4.9 °C 40.3 °F /  4.6 °C 30.18in /  1021.9hPa SW 2.2mph /  3.5km/h 3mph /  4.8km/h 98% 0.00in /  0mm 358 W/m2
09:44 41 °F /  5 °C 40.1 °F /  4.5 °C 30.18in /  1021.9hPa NW 2.7mph /  4.3km/h 4mph /  6.4km/h 96.4% 0.00in /  0mm 361 W/m2
09:49 41.3 °F /  5.2 °C 40.4 °F /  4.7 °C 30.18in /  1021.9hPa North 4.6mph /  7.4km/h 5mph /  8km/h 96.8% 0.00in /  0mm 389 W/m2
09:54 41.3 °F /  5.2 °C 40.2 °F /  4.6 °C 30.18in /  1021.9hPa NE 4mph /  6.4km/h 6mph /  9.7km/h 95.8% 0.00in /  0mm 354 W/m2
09:59 41.1 °F /  5.1 °C 39.8 °F /  4.3 °C 30.18in /  1021.9hPa ENE 2.2mph /  3.5km/h 4mph /  6.4km/h 95.3% 0.00in /  0mm 423 W/m2
10:04 41.7 °F /  5.4 °C 40.6 °F /  4.8 °C 30.18in /  1021.9hPa ESE 3.5mph /  5.6km/h 2.7mph /  4.3km/h 95.6% 0.00in /  0mm 428 W/m2
10:09 42.2 °F /  5.7 °C 40.8 °F /  4.9 °C 30.17in /  1021.6hPa NW 3.7mph /  6km/h 5mph /  8km/h 94.7% 0.00in /  0mm 430 W/m2
10:14 42.8 °F /  6 °C 41.4 °F /  5.2 °C 30.17in /  1021.6hPa NNE 7.9mph /  12.7km/h 6mph /  9.7km/h 94.5% 0.00in /  0mm 470 W/m2
10:19 43.1 °F /  6.2 °C 41.2 °F /  5.1 °C 30.17in /  1021.6hPa NE 6.9mph /  11.1km/h 12mph /  19.3km/h 93.1% 0.00in /  0mm 361 W/m2
10:24 43.1 °F /  6.2 °C 41.2 °F /  5.1 °C 30.17in /  1021.6hPa NE 8.8mph /  14.2km/h 9mph /  14.5km/h 93% 0.00in /  0mm 486 W/m2
10:29 43.5 °F /  6.4 °C 41.4 °F /  5.2 °C 30.16in /  1021.2hPa NNE 8.7mph /  14km/h 12mph /  19.3km/h 92.3% 0.00in /  0mm 505 W/m2
10:34 43.8 °F /  6.6 °C 41.4 °F /  5.2 °C 30.16in /  1021.2hPa North 7.4mph /  11.9km/h 12mph /  19.3km/h 91.4% 0.00in /  0mm 533 W/m2
10:39 44.4 °F /  6.9 °C 41.9 °F /  5.5 °C 30.16in /  1021.2hPa NNE 8.3mph /  13.4km/h 9mph /  14.5km/h 90.9% 0.00in /  0mm 559 W/m2
10:44 44.7 °F /  7.1 °C 41.8 °F /  5.4 °C 30.16in /  1021.2hPa NNE 8.3mph /  13.4km/h 9mph /  14.5km/h 89.5% 0.00in /  0mm 490 W/m2
10:49 44.8 °F /  7.1 °C 41.7 °F /  5.4 °C 30.16in /  1021.2hPa NNE 6.8mph /  10.9km/h 11mph /  17.7km/h 88.8% 0.00in /  0mm 536 W/m2
10:54 45.1 °F /  7.3 °C 42 °F /  5.6 °C 30.16in /  1021.2hPa NNE 9mph /  14.5km/h 10mph /  16.1km/h 88.5% 0.00in /  0mm 552 W/m2
10:59 45.6 °F /  7.6 °C 42.3 °F /  5.7 °C 30.16in /  1021.2hPa North 8.5mph /  13.7km/h 10mph /  16.1km/h 88% 0.00in /  0mm 610 W/m2
11:04 45.9 °F /  7.7 °C 42.5 °F /  5.8 °C 30.15in /  1020.9hPa North 8.7mph /  14km/h 10mph /  16.1km/h 87.8% 0.00in /  0mm 592 W/m2
11:09 45.6 °F /  7.6 °C 41.8 °F /  5.4 °C 30.15in /  1020.9hPa North 8.3mph /  13.4km/h 10mph /  16.1km/h 86.2% 0.00in /  0mm 227 W/m2
11:14 45 °F /  7.2 °C 41.3 °F /  5.2 °C 30.15in /  1020.9hPa North 10.5mph /  16.9km/h 10mph /  16.1km/h 87% 0.00in /  0mm 398 W/m2
11:19 44.5 °F /  6.9 °C 41.1 °F /  5.1 °C 30.15in /  1020.9hPa North 8.6mph /  13.8km/h 12mph /  19.3km/h 88% 0.00in /  0mm 195 W/m2
11:24 44 °F /  6.7 °C 40.5 °F /  4.7 °C 30.15in /  1020.9hPa North 9.1mph /  14.6km/h 10mph /  16.1km/h 87.6% 0.00in /  0mm 211 W/m2
11:29 43.4 °F /  6.3 °C 40.2 °F /  4.6 °C 30.15in /  1020.9hPa North 11mph /  17.7km/h 12mph /  19.3km/h 88.4% 0.00in /  0mm 195 W/m2
11:34 43.2 °F /  6.2 °C 40.1 °F /  4.5 °C 30.14in /  1020.5hPa North 10.7mph /  17.2km/h 12mph /  19.3km/h 89% 0.00in /  0mm 164 W/m2
11:39 42.9 °F /  6.1 °C 39.9 °F /  4.4 °C 30.14in /  1020.5hPa North 10.7mph /  17.2km/h 12mph /  19.3km/h 89% 0.00in /  0mm 198 W/m2
11:44 42.7 °F /  5.9 °C 39.7 °F /  4.3 °C 30.14in /  1020.5hPa North 12.4mph /  20km/h 13mph /  20.9km/h 89% 0.00in /  0mm 343 W/m2
11:49 42.6 °F /  5.9 °C 39.7 °F /  4.3 °C 30.14in /  1020.5hPa North 8.7mph /  14km/h 14mph /  22.5km/h 89.4% 0.00in /  0mm 259 W/m2
11:54 42.6 °F /  5.9 °C 39.9 °F /  4.4 °C 30.14in /  1020.5hPa North 11.1mph /  17.9km/h 9mph /  14.5km/h 89.8% 0.00in /  0mm 247 W/m2
11:59 42.8 °F /  6 °C 40 °F /  4.4 °C 30.14in /  1020.5hPa North 10.2mph /  16.4km/h 13mph /  20.9km/h 89.7% 0.00in /  0mm 385 W/m2
12:04 43 °F /  6.1 °C 40.1 °F /  4.5 °C 30.14in /  1020.5hPa North 10.3mph /  16.6km/h 13mph /  20.9km/h 89.5% 0.00in /  0mm 201 W/m2
12:09 42.7 °F /  5.9 °C 39.7 °F /  4.3 °C 30.14in /  1020.5hPa North 8.8mph /  14.2km/h 12mph /  19.3km/h 89% 0.00in /  0mm 201 W/m2
12:14 42.5 °F /  5.8 °C 39.5 °F /  4.2 °C 30.13in /  1020.2hPa North 9.3mph /  15km/h 11mph /  17.7km/h 89% 0.00in /  0mm 185 W/m2
12:19 42.3 °F /  5.7 °C 39.2 °F /  4 °C 30.13in /  1020.2hPa North 10.6mph /  17.1km/h 11mph /  17.7km/h 89% 0.00in /  0mm 136 W/m2
12:24 42.1 °F /  5.6 °C 39.1 °F /  3.9 °C 30.13in /  1020.2hPa North 10.2mph /  16.4km/h 13mph /  20.9km/h 89% 0.00in /  0mm 214 W/m2
12:29 42 °F /  5.6 °C 39 °F /  3.9 °C 30.13in /  1020.2hPa North 10.6mph /  17.1km/h 12mph /  19.3km/h 89% 0.00in /  0mm 201 W/m2
12:34 42.2 °F /  5.7 °C 39.1 °F /  3.9 °C 30.13in /  1020.2hPa North 11.5mph /  18.5km/h 13mph /  20.9km/h 89% 0.00in /  0mm 463 W/m2
12:39 42.4 °F /  5.8 °C 39.4 °F /  4.1 °C 30.13in /  1020.2hPa North 10.3mph /  16.6km/h 14mph /  22.5km/h 89% 0.00in /  0mm 174 W/m2
12:44 42.6 °F /  5.9 °C 39.5 °F /  4.2 °C 30.13in /  1020.2hPa North 9.9mph /  15.9km/h 13mph /  20.9km/h 88.7% 0.00in /  0mm 181 W/m2
12:49 42.6 °F /  5.9 °C 39.3 °F /  4.1 °C 30.13in /  1020.2hPa North 10.4mph /  16.7km/h 12mph /  19.3km/h 88% 0.00in /  0mm 179 W/m2
12:54 42.6 °F /  5.9 °C 39.3 °F /  4.1 °C 30.13in /  1020.2hPa North 12.3mph /  19.8km/h 13mph /  20.9km/h 88% 0.00in /  0mm 154 W/m2
12:59 42.5 °F /  5.8 °C 39.2 °F /  4 °C 30.13in /  1020.2hPa North 9.7mph /  15.6km/h 14mph /  22.5km/h 88% 0.00in /  0mm 188 W/m2
13:04 42.5 °F /  5.8 °C 39.2 °F /  4 °C 30.13in /  1020.2hPa North 9.3mph /  15km/h 12mph /  19.3km/h 88% 0.00in /  0mm 284 W/m2
13:09 42.7 °F /  5.9 °C 39.4 °F /  4.1 °C 30.13in /  1020.2hPa North 10.8mph /  17.4km/h 13mph /  20.9km/h 88% 0.00in /  0mm 312 W/m2
13:14 42.8 °F /  6 °C 39.4 °F /  4.1 °C 30.13in /  1020.2hPa North 11.6mph /  18.7km/h 13mph /  20.9km/h 87.5% 0.00in /  0mm 211 W/m2
13:19 42.8 °F /  6 °C 38.9 °F /  3.8 °C 30.14in /  1020.5hPa North 10.3mph /  16.6km/h 13mph /  20.9km/h 86% 0.00in /  0mm 203 W/m2
13:24 42.8 °F /  6 °C 38.8 °F /  3.8 °C 30.14in /  1020.5hPa North 11.8mph /  19km/h 13mph /  20.9km/h 86% 0.00in /  0mm 118 W/m2
13:29 42.4 °F /  5.8 °C 38.5 °F /  3.6 °C 30.13in /  1020.2hPa North 10.4mph /  16.7km/h 13mph /  20.9km/h 86% 0.00in /  0mm 120 W/m2
13:34 42.3 °F /  5.7 °C 38.9 °F /  3.8 °C 30.13in /  1020.2hPa North 9.7mph /  15.6km/h 13mph /  20.9km/h 87.8% 0.00in /  0mm 132 W/m2
13:39 42.3 °F /  5.7 °C 39 °F /  3.9 °C 30.13in /  1020.2hPa North 11.2mph /  18km/h 13mph /  20.9km/h 88% 0.00in /  0mm 108 W/m2
13:44 42 °F /  5.6 °C 38.7 °F /  3.7 °C 30.13in /  1020.2hPa North 12.1mph /  19.5km/h 13mph /  20.9km/h 88% 0.00in /  0mm 82 W/m2
13:49 41.9 °F /  5.5 °C 38.6 °F /  3.7 °C 30.13in /  1020.2hPa North 9.8mph /  15.8km/h 15mph /  24.1km/h 88.1% 0.00in /  0mm 99 W/m2
13:54 41.8 °F /  5.4 °C 38.8 °F /  3.8 °C 30.13in /  1020.2hPa North 10.2mph /  16.4km/h 12mph /  19.3km/h 89% 0.00in /  0mm 101 W/m2
13:59 41.7 °F /  5.4 °C 38.7 °F /  3.7 °C 30.13in /  1020.2hPa North 6.7mph /  10.8km/h 14mph /  22.5km/h 89% 0.00in /  0mm 101 W/m2
14:04 41.5 °F /  5.3 °C 38.5 °F /  3.6 °C 30.13in /  1020.2hPa North 11.4mph /  18.3km/h 9mph /  14.5km/h 89% 0.00in /  0mm 78 W/m2
14:09 41.3 °F /  5.2 °C 38.3 °F /  3.5 °C 30.13in /  1020.2hPa North 10mph /  16.1km/h 13mph /  20.9km/h 89% 0.00in /  0mm 69 W/m2
14:14 41.2 °F /  5.1 °C 38.3 °F /  3.5 °C 30.13in /  1020.2hPa North 11mph /  17.7km/h 12mph /  19.3km/h 89.5% 0.00in /  0mm 75 W/m2
14:19 41 °F /  5 °C 38.3 °F /  3.5 °C 30.14in /  1020.5hPa North 11mph /  17.7km/h 13mph /  20.9km/h 90% 0.00in /  0mm 82 W/m2
14:24 40.8 °F /  4.9 °C 38.1 °F /  3.4 °C 30.13in /  1020.2hPa North 13.5mph /  21.7km/h 14mph /  22.5km/h 90% 0.00in /  0mm 84 W/m2
14:29 40.7 °F /  4.8 °C 38 °F /  3.3 °C 30.13in /  1020.2hPa North 10.4mph /  16.7km/h 15mph /  24.1km/h 90% 0.00in /  0mm 85 W/m2
14:34 40.6 °F /  4.8 °C 38.1 °F /  3.4 °C 30.13in /  1020.2hPa North 11.6mph /  18.7km/h 14mph /  22.5km/h 90.7% 0.00in /  0mm 78 W/m2
14:39 40.5 °F /  4.7 °C 38 °F /  3.3 °C 30.13in /  1020.2hPa North 12mph /  19.3km/h 14mph /  22.5km/h 91% 0.00in /  0mm 74 W/m2
14:44 40.3 °F /  4.6 °C 37.9 °F /  3.3 °C 30.13in /  1020.2hPa North 11.8mph /  19km/h 16mph /  25.7km/h 91% 0.00in /  0mm 123 W/m2
14:49 40.4 °F /  4.7 °C 37.9 °F /  3.3 °C 30.13in /  1020.2hPa North 12.5mph /  20.1km/h 16mph /  25.7km/h 91% 0.00in /  0mm 106 W/m2
14:54 40.3 °F /  4.6 °C 37.9 °F /  3.3 °C 30.13in /  1020.2hPa North 10.5mph /  16.9km/h 19mph /  30.6km/h 91% 0.00in /  0mm 84 W/m2
14:59 40.2 °F /  4.6 °C 37.8 °F /  3.2 °C 30.13in /  1020.2hPa North 11.4mph /  18.3km/h 12mph /  19.3km/h 91% 0.00in /  0mm 65 W/m2
15:04 40.1 °F /  4.5 °C 37.7 °F /  3.2 °C 30.13in /  1020.2hPa North 10.7mph /  17.2km/h 15mph /  24.1km/h 91% 0.00in /  0mm 52 W/m2
15:09 40 °F /  4.4 °C 37.6 °F /  3.1 °C 30.13in /  1020.2hPa North 9.4mph /  15.1km/h 13mph /  20.9km/h 91% 0.00in /  0mm 48 W/m2
15:14 39.9 °F /  4.4 °C 37.5 °F /  3.1 °C 30.13in /  1020.2hPa North 9.6mph /  15.4km/h 13mph /  20.9km/h 91% 0.00in /  0mm 42 W/m2
15:19 39.7 °F /  4.3 °C 37.7 °F /  3.2 °C 30.14in /  1020.5hPa North 7.7mph /  12.4km/h 13mph /  20.9km/h 92.5% 0.00in /  0mm 38 W/m2
15:24 39.7 °F /  4.3 °C 37.3 °F /  2.9 °C 30.14in /  1020.5hPa North 9.2mph /  14.8km/h 8mph /  12.9km/h 91% 0.00in /  0mm 31 W/m2
15:29 39.7 °F /  4.3 °C 37.3 °F /  2.9 °C 30.14in /  1020.5hPa North 9.5mph /  15.3km/h 11mph /  17.7km/h 91% 0.00in /  0mm 27 W/m2
15:34 39.7 °F /  4.3 °C 37.3 °F /  2.9 °C 30.14in /  1020.5hPa North 6.7mph /  10.8km/h 10mph /  16.1km/h 91% 0.00in /  0mm 21 W/m2
15:39 39.7 °F /  4.3 °C 37.1 °F /  2.8 °C 30.13in /  1020.2hPa North 7.8mph /  12.6km/h 8mph /  12.9km/h 90.5% 0.00in /  0mm 15 W/m2
15:44 39.8 °F /  4.3 °C 37.1 °F /  2.8 °C 30.14in /  1020.5hPa North 4.8mph /  7.7km/h 11mph /  17.7km/h 90% 0.00in /  0mm 11 W/m2
15:49 39.9 °F /  4.4 °C 37.2 °F /  2.9 °C 30.13in /  1020.2hPa North 5.6mph /  9km/h 6mph /  9.7km/h 90% 0.00in /  0mm 8 W/m2
15:54 39.9 °F /  4.4 °C 37.2 °F /  2.9 °C 30.13in /  1020.2hPa NNW 6.7mph /  10.8km/h 8mph /  12.9km/h 90% 0.00in /  0mm 4 W/m2
15:59 39.9 °F /  4.4 °C 37.2 °F /  2.9 °C 30.13in /  1020.2hPa North 4.6mph /  7.4km/h 7mph /  11.3km/h 90% 0.00in /  0mm 3 W/m2
16:04 39.9 °F /  4.4 °C 37.2 °F /  2.9 °C 30.14in /  1020.5hPa North 3.7mph /  6km/h 5mph /  8km/h 90% 0.00in /  0mm 1 W/m2
16:09 39.9 °F /  4.4 °C 37.2 °F /  2.9 °C 30.13in /  1020.2hPa North 5mph /  8km/h 6mph /  9.7km/h 90% 0.00in /  0mm 0 W/m2
16:14 39.9 °F /  4.4 °C 37.2 °F /  2.9 °C 30.13in /  1020.2hPa North 3.3mph /  5.3km/h 6mph /  9.7km/h 90% 0.00in /  0mm 0 W/m2
16:19 39.9 °F /  4.4 °C 37.2 °F /  2.9 °C 30.13in /  1020.2hPa North 3.7mph /  6km/h 6mph /  9.7km/h 90% 0.00in /  0mm 0 W/m2
16:24 39.9 °F /  4.4 °C 37.2 °F /  2.9 °C 30.13in /  1020.2hPa NNW 4.5mph /  7.2km/h 6mph /  9.7km/h 90% 0.00in /  0mm 0 W/m2
16:29 39.8 °F /  4.3 °C 37.1 °F /  2.8 °C 30.13in /  1020.2hPa NNW 4.3mph /  6.9km/h 6mph /  9.7km/h 90% 0.00in /  0mm 0 W/m2
16:34 39.9 °F /  4.4 °C 37.2 °F /  2.9 °C 30.13in /  1020.2hPa NNW 3.7mph /  6km/h 6mph /  9.7km/h 90% 0.00in /  0mm 0 W/m2
16:39 39.7 °F /  4.3 °C 37.2 °F /  2.9 °C 30.13in /  1020.2hPa NE 3.8mph /  6.1km/h 5mph /  8km/h 90.5% 0.00in /  0mm 0 W/m2
16:44 39.7 °F /  4.3 °C 37.3 °F /  2.9 °C 30.13in /  1020.2hPa ESE 2.3mph /  3.7km/h 4mph /  6.4km/h 91% 0.00in /  0mm 0 W/m2
16:49 39.6 °F /  4.2 °C 37.2 °F /  2.9 °C 30.13in /  1020.2hPa NE 2.8mph /  4.5km/h 3mph /  4.8km/h 91% 0.00in /  0mm 0 W/m2
16:54 39.6 °F /  4.2 °C 37.2 °F /  2.9 °C 30.13in /  1020.2hPa NW 4.7mph /  7.6km/h 5mph /  8km/h 91% 0.00in /  0mm 0 W/m2
16:59 39.6 °F /  4.2 °C 37.1 °F /  2.8 °C 30.13in /  1020.2hPa North 3.2mph /  5.1km/h 6mph /  9.7km/h 90.4% 0.00in /  0mm 0 W/m2
17:04 39.7 °F /  4.3 °C 37 °F /  2.8 °C 30.13in /  1020.2hPa North 4mph /  6.4km/h 6mph /  9.7km/h 90% 0.00in /  0mm 0 W/m2
17:09 39.7 °F /  4.3 °C 37 °F /  2.8 °C 30.13in /  1020.2hPa North 4.8mph /  7.7km/h 5mph /  8km/h 90% 0.00in /  0mm 0 W/m2
17:14 39.7 °F /  4.3 °C 37 °F /  2.8 °C 30.13in /  1020.2hPa North 4mph /  6.4km/h 6mph /  9.7km/h 90% 0.00in /  0mm 0 W/m2
17:19 39.7 °F /  4.3 °C 37 °F /  2.8 °C 30.13in /  1020.2hPa NNW 3.7mph /  6km/h 5mph /  8km/h 90% 0.00in /  0mm 0 W/m2
17:24 39.7 °F /  4.3 °C 37.1 °F /  2.8 °C 30.13in /  1020.2hPa NW 2.7mph /  4.3km/h 5mph /  8km/h 90.2% 0.00in /  0mm 0 W/m2
17:29 39.7 °F /  4.3 °C 37.3 °F /  2.9 °C 30.13in /  1020.2hPa West 4.6mph /  7.4km/h 4mph /  6.4km/h 91% 0.00in /  0mm 0 W/m2
17:34 39.6 °F /  4.2 °C 37.2 °F /  2.9 °C 30.13in /  1020.2hPa WNW 4.1mph /  6.6km/h 7mph /  11.3km/h 91% 0.00in /  0mm 0 W/m2
17:39 39.6 °F /  4.2 °C 37.2 °F /  2.9 °C 30.13in /  1020.2hPa NNW 6.8mph /  10.9km/h 7mph /  11.3km/h 91% 0.00in /  0mm 0 W/m2
17:44 39.6 °F /  4.2 °C 37.2 °F /  2.9 °C 30.12in /  1019.9hPa North 5.6mph /  9km/h 9mph /  14.5km/h 91% 0.00in /  0mm 0 W/m2
17:47 39.5 °F /  4.2 °C 37.1 °F /  2.8 °C 30.13in /  1020.2hPa North 7.9mph /  12.7km/h 9mph /  14.5km/h 91% 0.00in /  0mm 0 W/m2
17:55 39.2 °F /  4 °C 37.3 °F /  2.9 °C 30.13in /  1020.2hPa North 5mph /  8km/h 8mph /  12.9km/h 93% 0.00in /  0mm 0 W/m2
18:00 39.2 °F /  4 °C 37.3 °F /  2.9 °C 30.13in /  1020.2hPa North 6mph /  9.7km/h 9mph /  14.5km/h 93% 0.00in /  0mm 0 W/m2
18:05 39 °F /  3.9 °C 37.2 °F /  2.9 °C 30.12in /  1019.9hPa North 5mph /  8km/h 10mph /  16.1km/h 93% 0.00in /  0mm 0 W/m2
18:10 39 °F /  3.9 °C 37.2 °F /  2.9 °C 30.13in /  1020.2hPa North 3mph /  4.8km/h 8mph /  12.9km/h 93% 0.00in /  0mm 0 W/m2
18:15 38.8 °F /  3.8 °C 37 °F /  2.8 °C 30.13in /  1020.2hPa North 1mph /  1.6km/h 7mph /  11.3km/h 93% 0.00in /  0mm 0 W/m2
18:20 38.7 °F /  3.7 °C 36.8 °F /  2.7 °C 30.13in /  1020.2hPa North 2mph /  3.2km/h 5mph /  8km/h 93% 0.00in /  0mm 0 W/m2
18:30 38.5 °F /  3.6 °C 36.6 °F /  2.6 °C 30.13in /  1020.2hPa Calm   8mph /  12.9km/h 93% 0.00in /  0mm 0 W/m2
18:35 38.3 °F /  3.5 °C 36.7 °F /  2.6 °C 30.13in /  1020.2hPa North 1mph /  1.6km/h 2mph /  3.2km/h 94% 0.00in /  0mm 0 W/m2
18:40 38.1 °F /  3.4 °C 36.5 °F /  2.5 °C 30.13in /  1020.2hPa NNE 1mph /  1.6km/h 4mph /  6.4km/h 94% 0.00in /  0mm 0 W/m2
18:50 37.8 °F /  3.2 °C 36.2 °F /  2.3 °C 30.13in /  1020.2hPa Calm   2mph /  3.2km/h 94% 0.00in /  0mm 0 W/m2
18:55 37.6 °F /  3.1 °C 36 °F /  2.2 °C 30.13in /  1020.2hPa Calm   2mph /  3.2km/h 94% 0.00in /  0mm 0 W/m2
19:00 37.2 °F /  2.9 °C 35.9 °F /  2.2 °C 30.13in /  1020.2hPa South 1mph /  1.6km/h 3mph /  4.8km/h 95% 0.00in /  0mm 0 W/m2
19:09 36.4 °F /  2.4 °C 35.4 °F /  1.9 °C 30.13in /  1020.2hPa SSE 3.2mph /  5.1km/h 2mph /  3.2km/h 95.7% 0.00in /  0mm 0 W/m2
19:14 36.3 °F /  2.4 °C 35.3 °F /  1.8 °C 30.13in /  1020.2hPa SE 1.6mph /  2.6km/h 3mph /  4.8km/h 96% 0.00in /  0mm 0 W/m2
19:19 36.1 °F /  2.3 °C 35.1 °F /  1.7 °C 30.13in /  1020.2hPa ENE 1.3mph /  2.1km/h 2mph /  3.2km/h 96% 0.00in /  0mm 0 W/m2
19:24 35.8 °F /  2.1 °C 34.8 °F /  1.6 °C 30.13in /  1020.2hPa WNW 1.9mph /  3.1km/h 1.6mph /  2.6km/h 96% 0.00in /  0mm 0 W/m2
19:29 35.6 °F /  2 °C 34.6 °F /  1.4 °C 30.13in /  1020.2hPa SW 2.3mph /  3.7km/h 3mph /  4.8km/h 96% 0.00in /  0mm 0 W/m2
19:34 35.3 °F /  1.8 °C 34.6 °F /  1.4 °C 30.13in /  1020.2hPa SW 2.2mph /  3.5km/h 2mph /  3.2km/h 97.5% 0.00in /  0mm 0 W/m2
19:39 35.2 °F /  1.8 °C 34.7 °F /  1.5 °C 30.13in /  1020.2hPa NW 1.5mph /  2.4km/h 2mph /  3.2km/h 98% 0.00in /  0mm 0 W/m2
19:44 35 °F /  1.7 °C 34.5 °F /  1.4 °C 30.13in /  1020.2hPa West 2.5mph /  4km/h 2mph /  3.2km/h 98% 0.00in /  0mm 0 W/m2
19:49 34.8 °F /  1.6 °C 34.3 °F /  1.3 °C 30.12in /  1019.9hPa WSW 2.4mph /  3.9km/h 5mph /  8km/h 98% 0.00in /  0mm 0 W/m2
19:54 34.6 °F /  1.4 °C 34.1 °F /  1.2 °C 30.13in /  1020.2hPa WSW 2.4mph /  3.9km/h 2.5mph /  4km/h 98% 0.00in /  0mm 0 W/m2
19:59 34.2 °F /  1.2 °C 33.8 °F /  1 °C 30.13in /  1020.2hPa SSW 3.3mph /  5.3km/h 3.1mph /  5km/h 98.7% 0.00in /  0mm 0 W/m2
20:04 33.9 °F /  1.1 °C 33.6 °F /  0.9 °C 30.13in /  1020.2hPa South 2.8mph /  4.5km/h 4mph /  6.4km/h 99% 0.00in /  0mm 0 W/m2
20:09 33.6 °F /  0.9 °C 33.4 °F /  0.8 °C 30.13in /  1020.2hPa South 2.8mph /  4.5km/h 3mph /  4.8km/h 99% 0.00in /  0mm 0 W/m2
20:14 33.5 °F /  0.8 °C 33.3 °F /  0.7 °C 30.13in /  1020.2hPa South 2.9mph /  4.7km/h 3mph /  4.8km/h 99% 0.00in /  0mm 0 W/m2
20:19 33.3 °F /  0.7 °C 33.1 °F /  0.6 °C 30.13in /  1020.2hPa South 2.7mph /  4.3km/h 3mph /  4.8km/h 99% 0.00in /  0mm 0 W/m2
20:24 33.2 °F /  0.7 °C 32.9 °F /  0.5 °C 30.13in /  1020.2hPa SSW 2.8mph /  4.5km/h 3mph /  4.8km/h 99% 0.00in /  0mm 0 W/m2
20:29 33 °F /  0.6 °C 32.8 °F /  0.4 °C 30.13in /  1020.2hPa South 1.9mph /  3.1km/h 3mph /  4.8km/h 99% 0.00in /  0mm 0 W/m2
20:34 32.9 °F /  0.5 °C 32.7 °F /  0.4 °C 30.13in /  1020.2hPa SW 1.6mph /  2.6km/h 2mph /  3.2km/h 99% 0.00in /  0mm 0 W/m2
20:39 32.9 °F /  0.5 °C 32.7 °F /  0.4 °C 30.13in /  1020.2hPa WSW 1.5mph /  2.4km/h 2mph /  3.2km/h 99% 0.00in /  0mm 0 W/m2
20:44 32.8 °F /  0.4 °C 32.6 °F /  0.3 °C 30.13in /  1020.2hPa West 1.1mph /  1.8km/h 2mph /  3.2km/h 99% 0.00in /  0mm 0 W/m2
20:49 32.6 °F /  0.3 °C 32.4 °F /  0.2 °C 30.13in /  1020.2hPa West 1.1mph /  1.8km/h 1mph /  1.6km/h 99% 0.00in /  0mm 0 W/m2
20:54 32.5 °F /  0.3 °C 32.2 °F /  0.1 °C 30.13in /  1020.2hPa SW 1.3mph /  2.1km/h 1mph /  1.6km/h 99% 0.00in /  0mm 0 W/m2
20:59 32.4 °F /  0.2 °C 32.1 °F /  0.1 °C 30.13in /  1020.2hPa WSW 2.2mph /  3.5km/h 2mph /  3.2km/h 99% 0.00in /  0mm 0 W/m2
21:04 32.3 °F /  0.2 °C 32 °F /  0 °C 30.13in /  1020.2hPa West 1.2mph /  1.9km/h 2mph /  3.2km/h 99% 0.00in /  0mm 0 W/m2
21:09 32.2 °F /  0.1 °C 31.9 °F /  -0.1 °C 30.13in /  1020.2hPa WNW 1.6mph /  2.6km/h 1.8mph /  2.9km/h 99% 0.00in /  0mm 0 W/m2
21:14 32.1 °F /  0.1 °C 31.9 °F /  -0.1 °C 30.13in /  1020.2hPa WNW 2.1mph /  3.4km/h 2mph /  3.2km/h 99% 0.00in /  0mm 0 W/m2
21:19 32 °F /  0 °C 31.8 °F /  -0.1 °C 30.13in /  1020.2hPa NW 1.6mph /  2.6km/h 2mph /  3.2km/h 99% 0.00in /  0mm 0 W/m2
21:24 32 °F /  0 °C 31.8 °F /  -0.1 °C 30.13in /  1020.2hPa WNW 1.3mph /  2.1km/h 2mph /  3.2km/h 99% 0.00in /  0mm 0 W/m2
21:29 31.9 °F /  -0.1 °C 31.7 °F /  -0.2 °C 30.13in /  1020.2hPa WNW 0.5mph /  0.8km/h 2mph /  3.2km/h 99% 0.00in /  0mm 0 W/m2
21:34 31.9 °F /  -0.1 °C 31.7 °F /  -0.2 °C 30.13in /  1020.2hPa NNW 0.7mph /  1.1km/h 0.2mph /  0.3km/h 99% 0.00in /  0mm 0 W/m2
21:39 31.9 °F /  -0.1 °C 31.7 °F /  -0.2 °C 30.13in /  1020.2hPa North 2mph /  3.2km/h 1.3mph /  2.1km/h 99% 0.00in /  0mm 0 W/m2
21:44 31.9 °F /  -0.1 °C 31.7 °F /  -0.2 °C 30.12in /  1019.9hPa NE 1.4mph /  2.3km/h 2mph /  3.2km/h 99% 0.00in /  0mm 0 W/m2
21:49 31.8 °F /  -0.1 °C 31.6 °F /  -0.2 °C 30.12in /  1019.9hPa SE 2.1mph /  3.4km/h 2mph /  3.2km/h 99% 0.00in /  0mm 0 W/m2
21:54 31.8 °F /  -0.1 °C 31.6 °F /  -0.2 °C 30.12in /  1019.9hPa SSE 2mph /  3.2km/h 2mph /  3.2km/h 99% 0.00in /  0mm 0 W/m2
21:59 31.7 °F /  -0.2 °C 31.5 °F /  -0.3 °C 30.12in /  1019.9hPa SSE 1.6mph /  2.6km/h 2.2mph /  3.5km/h 99% 0.00in /  0mm 0 W/m2
22:04 31.6 °F /  -0.2 °C 31.4 °F /  -0.3 °C 30.12in /  1019.9hPa SSE 0.4mph /  0.6km/h 3mph /  4.8km/h 99% 0.00in /  0mm 0 W/m2
22:09 31.5 °F /  -0.3 °C 31.2 °F /  -0.4 °C 30.12in /  1019.9hPa WNW 2.1mph /  3.4km/h 1.3mph /  2.1km/h 99% 0.00in /  0mm 0 W/m2
22:14 31.5 °F /  -0.3 °C 31.2 °F /  -0.4 °C 30.12in /  1019.9hPa WNW 1.7mph /  2.7km/h 3mph /  4.8km/h 99% 0.00in /  0mm 0 W/m2
22:19 31.3 °F /  -0.4 °C 31.1 °F /  -0.5 °C 30.12in /  1019.9hPa NW 2.4mph /  3.9km/h 3mph /  4.8km/h 99% 0.00in /  0mm 0 W/m2
22:24 31.4 °F /  -0.3 °C 31.1 °F /  -0.5 °C 30.12in /  1019.9hPa WNW 1.6mph /  2.6km/h 2mph /  3.2km/h 99% 0.00in /  0mm 0 W/m2
22:29 31.3 °F /  -0.4 °C 31 °F /  -0.6 °C 30.12in /  1019.9hPa WNW 1.7mph /  2.7km/h 2mph /  3.2km/h 99% 0.00in /  0mm 0 W/m2
22:34 31.3 °F /  -0.4 °C 31 °F /  -0.6 °C 30.12in /  1019.9hPa NNW 1.6mph /  2.6km/h 2mph /  3.2km/h 99% 0.00in /  0mm 0 W/m2
22:39 31.3 °F /  -0.4 °C 31 °F /  -0.6 °C 30.12in /  1019.9hPa South 0.7mph /  1.1km/h 2mph /  3.2km/h 99% 0.00in /  0mm 0 W/m2
22:44 31.3 °F /  -0.4 °C 31 °F /  -0.6 °C 30.12in /  1019.9hPa SSE 1.9mph /  3.1km/h 1.8mph /  2.9km/h 99% 0.00in /  0mm 0 W/m2
22:49 31.1 °F /  -0.5 °C 30.9 °F /  -0.6 °C 30.12in /  1019.9hPa ENE 2.3mph /  3.7km/h 2mph /  3.2km/h 99% 0.00in /  0mm 0 W/m2
22:54 31.1 °F /  -0.5 °C 30.9 °F /  -0.6 °C 30.12in /  1019.9hPa NW 2.3mph /  3.7km/h 2mph /  3.2km/h 99% 0.00in /  0mm 0 W/m2
22:59 31.1 °F /  -0.5 °C 30.9 °F /  -0.6 °C 30.12in /  1019.9hPa NW 1.6mph /  2.6km/h 3mph /  4.8km/h 99% 0.00in /  0mm 0 W/m2
23:04 30.9 °F /  -0.6 °C 30.7 °F /  -0.7 °C 30.12in /  1019.9hPa NW 1.7mph /  2.7km/h 2mph /  3.2km/h 99% 0.00in /  0mm 0 W/m2
23:09 30.9 °F /  -0.6 °C 30.7 °F /  -0.7 °C 30.12in /  1019.9hPa NW 1.8mph /  2.9km/h 4mph /  6.4km/h 99% 0.00in /  0mm 0 W/m2
23:14 30.9 °F /  -0.6 °C 30.7 °F /  -0.7 °C 30.12in /  1019.9hPa NW 1.9mph /  3.1km/h 3mph /  4.8km/h 99% 0.00in /  0mm 0 W/m2
23:19 30.9 °F /  -0.6 °C 30.7 °F /  -0.7 °C 30.12in /  1019.9hPa NW 2.1mph /  3.4km/h 2mph /  3.2km/h 99% 0.00in /  0mm 0 W/m2
23:24 30.9 °F /  -0.6 °C 30.7 °F /  -0.7 °C 30.12in /  1019.9hPa WNW 2.1mph /  3.4km/h 2mph /  3.2km/h 99% 0.00in /  0mm 0 W/m2
23:29 30.9 °F /  -0.6 °C 30.7 °F /  -0.7 °C 30.12in /  1019.9hPa WNW 1.3mph /  2.1km/h 2mph /  3.2km/h 99% 0.00in /  0mm 0 W/m2
23:34 30.9 °F /  -0.6 °C 30.7 °F /  -0.7 °C 30.12in /  1019.9hPa West 1.2mph /  1.9km/h 2mph /  3.2km/h 99% 0.00in /  0mm 0 W/m2
23:39 30.8 °F /  -0.7 °C 30.6 °F /  -0.8 °C 30.11in /  1019.5hPa WNW 2.2mph /  3.5km/h 2mph /  3.2km/h 99% 0.00in /  0mm 0 W/m2
23:44 30.7 °F /  -0.7 °C 30.5 °F /  -0.8 °C 30.12in /  1019.9hPa WNW 2.1mph /  3.4km/h 2mph /  3.2km/h 99% 0.00in /  0mm 0 W/m2
23:49 30.7 °F /  -0.7 °C 30.5 °F /  -0.8 °C 30.11in /  1019.5hPa WNW 2.6mph /  4.2km/h 2.5mph /  4km/h 99% 0.00in /  0mm 0 W/m2
23:54 30.7 °F /  -0.7 °C 30.5 °F /  -0.8 °C 30.11in /  1019.5hPa West 2.4mph /  3.9km/h 3mph /  4.8km/h 99% 0.00in /  0mm 0 W/m2
23:59 30.7 °F /  -0.7 °C 30.5 °F /  -0.8 °C 30.11in /  1019.5hPa West 2.1mph /  3.4km/h 3mph /  4.8km/h 99% 0.00in /  0mm 0 W/m2
Knjazevac, Serbia
Compliments of Weather Underground - 4 mb